Terminal Aerodrome Forecast
Issued by NWS Twin Cities, MN

Home | Current Version | Previous Version | Text Only | Print | Product List | Glossary On
Versions: 1 2 3 4 5 6 7 8 9 10 11 12 13 14 15 16 17 18 19 20 21 22 23
000
FTUS43 KMPX 051345 AAA
TAFEAU
TAF AMD
KEAU 051345Z 0514/0612 09004KT P6SM BKN120
     FM051500 14008KT P6SM SCT080 SCT250
     FM051800 18012G19KT P6SM SCT050 BKN250
     FM060100 16007KT P6SM SCT080 BKN150 PROB30 0606/0612 4SM TSRA
      BKN060CB=

USA.gov is the U.S. government's official web portal to all federal, state and local government web resources and services.